Time;durP1;ratioP1;P1;durP2;ratioP2;P2;SDS_P1;SDS_P2;PMS_P1;PMS_P2;Temp;Humidity;BMP_temperature;BMP_pressure;BME280_temperature;BME280_humidity;BME280_pressure;Samples;Min_cycle;Max_cycle;Signal;HPM_P1;HPM_P2
2022/05/02 00:00:59;;;;;;;8.05;6.75;;;6.80;99.90;;;;;;4960520;28;20042;-56
2022/05/02 00:03:25;;;;;;;7.20;6.50;;;6.70;99.90;;;;;;4971292;28;20045;-55
2022/05/02 00:05:51;;;;;;;7.90;6.40;;;6.70;99.90;;;;;;4979110;28;20042;-56
2022/05/02 00:08:17;;;;;;;9.43;6.60;;;6.70;99.90;;;;;;4972460;28;20097;-59
2022/05/02 00:10:43;;;;;;;9.85;7.15;;;6.60;99.90;;;;;;4969079;28;20042;-58
2022/05/02 00:13:09;;;;;;;11.77;7.45;;;6.70;99.90;;;;;;4987663;28;20057;-58
2022/05/02 00:15:37;;;;;;;8.55;6.50;;;6.60;99.90;;;;;;4980330;28;20098;-57
2022/05/02 00:18:04;;;;;;;9.18;7.30;;;6.60;99.90;;;;;;4981081;28;20441;-55
2022/05/02 00:20:37;;;;;;;10.50;7.20;;;6.60;99.90;;;;;;4960233;28;20042;-52
2022/05/02 00:23:06;;;;;;;10.50;7.00;;;6.50;99.90;;;;;;4955393;28;20073;-58
2022/05/02 00:25:32;;;;;;;10.98;7.25;;;6.50;99.90;;;;;;4976338;28;20069;-57
2022/05/02 00:27:59;;;;;;;10.77;7.15;;;6.50;99.90;;;;;;4979148;28;20132;-55
2022/05/02 00:30:26;;;;;;;9.85;7.45;;;6.40;99.90;;;;;;4982260;28;20038;-58
2022/05/02 00:32:52;;;;;;;12.68;7.78;;;6.40;99.90;;;;;;4961092;28;20065;-58
2022/05/02 00:35:18;;;;;;;9.05;7.18;;;6.40;99.90;;;;;;4971316;28;20047;-56
2022/05/02 00:37:44;;;;;;;12.52;8.38;;;6.40;99.90;;;;;;4967349;28;20042;-56
2022/05/02 00:40:12;;;;;;;10.90;7.05;;;6.50;99.90;;;;;;4976771;28;20422;-56
2022/05/02 00:42:41;;;;;;;10.35;7.32;;;6.30;99.90;;;;;;4951348;28;20038;-54
2022/05/02 00:45:08;;;;;;;8.02;6.65;;;6.30;99.90;;;;;;4973714;28;20129;-57
2022/05/02 00:47:35;;;;;;;11.55;7.78;;;6.30;99.90;;;;;;4941184;28;20046;-55
2022/05/02 00:50:09;;;;;;;10.98;8.02;;;6.30;99.90;;;;;;4972224;28;20668;-53
2022/05/02 00:52:34;;;;;;;9.80;8.55;;;6.30;99.90;;;;;;4972393;28;20099;-55
2022/05/02 00:55:02;;;;;;;10.65;8.20;;;6.20;99.90;;;;;;4962785;28;20078;-59
2022/05/02 00:57:29;;;;;;;9.43;8.20;;;6.20;99.90;;;;;;4970928;28;20053;-55
2022/05/02 00:59:55;;;;;;;11.27;8.40;;;6.20;99.90;;;;;;4966436;28;20486;-56
2022/05/02 01:02:21;;;;;;;11.70;7.88;;;6.20;99.90;;;;;;4973910;28;20038;-58
2022/05/02 01:04:47;;;;;;;13.02;9.70;;;6.20;99.90;;;;;;4967857;28;20042;-58
2022/05/02 01:07:18;;;;;;;11.15;8.80;;;6.10;99.90;;;;;;4977224;28;20042;-59
2022/05/02 01:09:46;;;;;;;9.93;7.82;;;6.10;99.90;;;;;;4972262;28;20043;-58
2022/05/02 01:12:19;;;;;;;14.23;9.13;;;6.10;99.90;;;;;;4969246;28;20039;-56
2022/05/02 01:14:47;;;;;;;9.93;7.88;;;6.10;99.90;;;;;;4976545;28;20200;-55
2022/05/02 01:17:13;;;;;;;15.05;9.55;;;6.10;99.90;;;;;;4952696;28;20043;-56
2022/05/02 01:19:40;;;;;;;13.88;9.32;;;6.10;99.90;;;;;;4962623;28;20065;-56
2022/05/02 01:22:07;;;;;;;10.30;8.57;;;6.10;99.90;;;;;;4985892;28;20413;-54
2022/05/02 01:24:37;;;;;;;12.30;8.68;;;6.10;99.90;;;;;;4958104;28;20058;-56
2022/05/02 01:27:03;;;;;;;11.98;9.27;;;6.10;99.90;;;;;;4964746;28;20046;-57
2022/05/02 01:29:31;;;;;;;11.95;8.93;;;6.00;99.90;;;;;;4977461;28;20505;-56
2022/05/02 01:31:57;;;;;;;10.40;8.52;;;6.10;99.90;;;;;;4959564;28;20042;-56
2022/05/02 01:34:23;;;;;;;13.93;9.43;;;5.80;99.90;;;;;;4970691;28;20727;-54
2022/05/02 01:36:49;;;;;;;10.77;9.10;;;6.00;99.90;;;;;;4976013;28;20034;-57
2022/05/02 01:39:15;;;;;;;12.90;9.90;;;5.90;99.90;;;;;;4971317;28;20038;-58
2022/05/02 01:41:40;;;;;;;11.07;9.25;;;5.90;99.90;;;;;;4958479;28;20122;-55
2022/05/02 01:44:08;;;;;;;11.65;9.50;;;5.90;99.90;;;;;;4984750;28;20052;-55
2022/05/02 01:46:34;;;;;;;14.38;10.95;;;5.90;99.90;;;;;;4968558;28;20047;-58
2022/05/02 01:49:00;;;;;;;15.20;9.25;;;5.90;99.90;;;;;;4978710;28;20084;-56
2022/05/02 01:51:25;;;;;;;15.18;10.48;;;5.80;99.90;;;;;;4965931;28;20061;-57
2022/05/02 01:53:51;;;;;;;12.05;9.88;;;5.90;99.90;;;;;;4983649;28;20386;-56
2022/05/02 01:56:17;;;;;;;13.38;10.40;;;5.90;99.90;;;;;;4977617;28;20039;-55
2022/05/02 01:58:42;;;;;;;12.93;9.60;;;5.80;99.90;;;;;;4969103;28;20159;-57
2022/05/02 02:01:08;;;;;;;12.27;10.00;;;5.80;99.90;;;;;;4954990;28;20042;-57
2022/05/02 02:03:34;;;;;;;15.38;10.73;;;5.80;99.90;;;;;;4958512;28;20085;-56
2022/05/02 02:06:00;;;;;;;15.45;9.85;;;5.80;99.90;;;;;;4963201;28;20072;-56
2022/05/02 02:08:28;;;;;;;11.13;9.65;;;5.80;99.90;;;;;;4951853;28;20409;-58
2022/05/02 02:10:56;;;;;;;12.38;10.18;;;5.70;99.90;;;;;;4994224;28;20046;-55
2022/05/02 02:13:22;;;;;;;14.82;11.15;;;5.70;99.90;;;;;;4969442;28;20078;-55
2022/05/02 02:15:48;;;;;;;14.35;10.57;;;5.70;99.90;;;;;;4969891;28;20141;-54
2022/05/02 02:18:14;;;;;;;15.15;10.68;;;5.80;99.90;;;;;;4963030;28;20060;-52
2022/05/02 02:20:45;;;;;;;16.95;10.75;;;5.70;99.90;;;;;;4977955;28;20034;-53
2022/05/02 02:23:13;;;;;;;14.57;11.05;;;5.70;99.90;;;;;;4982046;28;20053;-57
2022/05/02 02:25:39;;;;;;;14.52;10.55;;;5.70;99.90;;;;;;4971341;28;20043;-55
2022/05/02 02:28:05;;;;;;;14.30;10.63;;;5.70;99.90;;;;;;4968289;28;20047;-53
2022/05/02 02:30:30;;;;;;;13.07;10.23;;;5.70;99.90;;;;;;4978927;28;20045;-55
2022/05/02 02:32:57;;;;;;;17.88;11.55;;;5.70;99.90;;;;;;4972728;28;20262;-54
2022/05/02 02:35:22;;;;;;;16.52;10.75;;;5.70;99.90;;;;;;4955131;28;20038;-54
2022/05/02 02:37:48;;;;;;;15.55;10.50;;;5.60;99.90;;;;;;4971738;28;20800;-52
2022/05/02 02:40:15;;;;;;;15.88;11.40;;;5.60;99.90;;;;;;4975338;28;20038;-56
2022/05/02 02:42:41;;;;;;;15.93;10.95;;;5.60;99.90;;;;;;4970189;28;20042;-54
2022/05/02 02:45:07;;;;;;;14.02;10.73;;;5.60;99.90;;;;;;4980072;28;20046;-54
2022/05/02 02:47:33;;;;;;;15.40;11.32;;;5.50;99.90;;;;;;4982197;28;20378;-54
2022/05/02 02:49:59;;;;;;;12.10;9.82;;;5.50;99.90;;;;;;4968938;28;20038;-52
2022/05/02 02:52:25;;;;;;;14.40;10.48;;;5.50;99.90;;;;;;4973457;28;20052;-55
2022/05/02 02:54:51;;;;;;;14.13;10.95;;;5.50;99.90;;;;;;4971562;28;20042;-56
2022/05/02 02:57:17;;;;;;;14.25;11.05;;;5.50;99.90;;;;;;4965997;28;20039;-54
2022/05/02 02:59:43;;;;;;;16.27;11.32;;;5.50;99.90;;;;;;4974497;28;20034;-55
2022/05/02 03:02:09;;;;;;;16.45;12.02;;;5.40;99.90;;;;;;4956370;28;20050;-57
2022/05/02 03:07:21;;;;;;;13.50;10.13;;;5.50;99.90;;;;;;4971701;28;20449;-55
2022/05/02 03:09:47;;;;;;;14.65;11.15;;;5.40;99.90;;;;;;4969530;28;20603;-58
2022/05/02 03:12:12;;;;;;;17.55;12.13;;;5.40;99.90;;;;;;4975406;28;20049;-52
2022/05/02 03:14:38;;;;;;;17.42;11.13;;;5.40;99.90;;;;;;4969726;28;20057;-51
2022/05/02 03:17:04;;;;;;;15.95;11.30;;;5.40;99.90;;;;;;4973282;28;20098;-52
2022/05/02 03:19:30;;;;;;;12.95;10.77;;;5.40;99.90;;;;;;4965219;28;20050;-53
2022/05/02 03:21:56;;;;;;;15.98;10.77;;;5.40;99.90;;;;;;4985057;28;20038;-52
2022/05/02 03:24:21;;;;;;;13.98;10.68;;;5.40;99.90;;;;;;4977177;28;20104;-58
2022/05/02 03:26:47;;;;;;;20.60;11.27;;;5.40;99.90;;;;;;4956765;28;20718;-58
2022/05/02 03:29:13;;;;;;;16.17;11.65;;;5.30;99.90;;;;;;4972991;28;20048;-54
2022/05/02 03:31:39;;;;;;;16.13;11.57;;;5.30;99.90;;;;;;4966701;28;20051;-55
2022/05/02 03:34:05;;;;;;;14.00;11.18;;;5.20;99.90;;;;;;4982590;28;20047;-54
2022/05/02 03:36:31;;;;;;;13.98;11.23;;;5.20;99.90;;;;;;4975901;28;20049;-57
2022/05/02 03:38:56;;;;;;;14.55;11.48;;;5.20;99.90;;;;;;4940109;28;20047;-56
2022/05/02 03:41:22;;;;;;;15.85;10.40;;;5.10;99.90;;;;;;4972190;28;20035;-52
2022/05/02 03:43:48;;;;;;;14.50;10.05;;;5.10;99.90;;;;;;4953930;28;20035;-55
2022/05/02 03:46:14;;;;;;;14.38;11.50;;;5.10;99.90;;;;;;4965177;28;20038;-56
2022/05/02 03:48:39;;;;;;;15.02;11.30;;;5.00;99.90;;;;;;4980419;28;20046;-57
2022/05/02 03:51:05;;;;;;;16.80;10.90;;;5.00;99.90;;;;;;4967432;28;21343;-57
2022/05/02 03:53:31;;;;;;;14.25;10.82;;;4.90;99.90;;;;;;4953796;28;20085;-54
2022/05/02 03:55:57;;;;;;;14.57;10.98;;;5.00;99.90;;;;;;4972854;28;20042;-55
2022/05/02 03:58:23;;;;;;;14.90;11.70;;;5.10;99.90;;;;;;4975832;28;20038;-57
2022/05/02 04:00:48;;;;;;;15.82;12.55;;;5.00;99.90;;;;;;4960409;28;20600;-58
2022/05/02 04:03:14;;;;;;;16.65;11.45;;;5.00;99.90;;;;;;4982407;28;20041;-56
2022/05/02 04:05:40;;;;;;;16.73;10.98;;;5.10;99.90;;;;;;4968984;28;20101;-56
2022/05/02 04:08:06;;;;;;;14.25;11.55;;;5.10;99.90;;;;;;4956682;28;20050;-54
2022/05/02 04:10:32;;;;;;;14.80;11.57;;;5.10;99.90;;;;;;4978430;28;20104;-58
2022/05/02 04:12:57;;;;;;;13.00;11.10;;;5.10;99.90;;;;;;4966412;28;20042;-57
2022/05/02 04:15:23;;;;;;;15.48;11.30;;;5.10;99.90;;;;;;4953972;28;20053;-55
2022/05/02 04:17:49;;;;;;;13.45;9.90;;;5.00;99.90;;;;;;4962106;28;20296;-56
2022/05/02 04:20:15;;;;;;;11.00;9.68;;;5.00;99.90;;;;;;4990027;28;20192;-55
2022/05/02 04:22:41;;;;;;;17.15;11.77;;;5.00;99.90;;;;;;4970160;28;20122;-59
2022/05/02 04:25:07;;;;;;;17.05;11.95;;;4.90;99.90;;;;;;4964980;28;20057;-58
2022/05/02 04:27:33;;;;;;;20.88;15.02;;;4.90;99.90;;;;;;4969178;28;20046;-53
2022/05/02 04:29:59;;;;;;;20.70;15.27;;;4.90;99.90;;;;;;4971144;28;20054;-55
2022/05/02 04:32:26;;;;;;;18.13;13.70;;;4.90;99.90;;;;;;4971295;28;20050;-56
2022/05/02 04:34:54;;;;;;;19.25;15.40;;;4.90;99.90;;;;;;4958144;28;20405;-58
2022/05/02 04:37:20;;;;;;;18.08;13.95;;;4.90;99.90;;;;;;4953480;28;20472;-58
2022/05/02 04:39:45;;;;;;;27.45;18.83;;;4.90;99.90;;;;;;4969078;28;20129;-56
2022/05/02 04:42:11;;;;;;;27.23;19.83;;;4.90;99.90;;;;;;4975691;28;20150;-59
2022/05/02 04:44:37;;;;;;;37.42;24.60;;;5.00;99.90;;;;;;4972264;28;20043;-56
2022/05/02 04:47:03;;;;;;;35.45;25.02;;;5.00;99.90;;;;;;4990887;28;20085;-58
2022/05/02 04:49:29;;;;;;;33.25;24.30;;;5.00;99.90;;;;;;4968943;28;20046;-54
2022/05/02 04:51:54;;;;;;;39.20;27.05;;;5.00;99.90;;;;;;4974491;28;20050;-56
2022/05/02 04:54:20;;;;;;;33.25;23.77;;;5.00;99.90;;;;;;4971376;28;20237;-54
2022/05/02 04:56:46;;;;;;;28.58;20.67;;;5.00;99.90;;;;;;4970101;28;20055;-57
2022/05/02 04:59:11;;;;;;;24.65;18.73;;;5.00;99.90;;;;;;4977649;28;20082;-57
2022/05/02 05:01:37;;;;;;;24.95;18.52;;;5.10;99.90;;;;;;4978598;28;20034;-57
2022/05/02 05:04:03;;;;;;;24.55;16.95;;;5.10;99.90;;;;;;4964590;28;20517;-56
2022/05/02 05:06:29;;;;;;;19.77;14.50;;;5.10;99.90;;;;;;4972520;28;20402;-57
2022/05/02 05:08:54;;;;;;;19.25;14.73;;;5.20;99.90;;;;;;4979741;28;20038;-57
2022/05/02 05:11:59;;;;;;;20.20;14.95;;;5.20;99.90;;;;;;4973878;28;20046;-52
2022/05/02 05:18:01;;;;;;;19.52;14.57;;;5.30;99.90;;;;;;4970718;28;20066;-55
2022/05/02 05:20:43;;;;;;;15.80;13.40;;;5.40;99.90;;;;;;4973154;28;21060;-53
2022/05/02 05:23:14;;;;;;;18.48;14.13;;;5.50;99.90;;;;;;4969691;28;20109;-57
2022/05/02 05:25:46;;;;;;;24.35;17.05;;;5.50;99.90;;;;;;4970415;28;20137;-56
2022/05/02 05:28:29;;;;;;;18.95;14.93;;;5.60;99.90;;;;;;4971075;28;20461;-54
2022/05/02 05:31:25;;;;;;;21.98;15.52;;;5.70;99.90;;;;;;4968520;28;20039;-59
2022/05/02 05:34:06;;;;;;;19.42;14.85;;;5.90;99.90;;;;;;4986093;28;20388;-58
2022/05/02 05:36:35;;;;;;;18.95;15.05;;;6.00;99.90;;;;;;4978102;28;20050;-56
2022/05/02 05:39:06;;;;;;;21.70;15.35;;;6.10;99.90;;;;;;4971678;28;20053;-57
2022/05/02 05:41:55;;;;;;;21.80;16.48;;;6.20;99.90;;;;;;4969028;28;20050;-53
2022/05/02 05:44:26;;;;;;;22.73;16.75;;;6.30;99.90;;;;;;4978502;28;20096;-58
2022/05/02 05:47:11;;;;;;;25.00;15.68;;;6.50;99.90;;;;;;4967800;28;20046;-57
2022/05/02 05:50:18;;;;;;;19.77;15.82;;;6.60;99.90;;;;;;4979373;28;20061;-57
2022/05/02 05:52:49;;;;;;;21.15;16.38;;;6.70;99.90;;;;;;4963681;28;20074;-58
2022/05/02 05:55:22;;;;;;;26.98;18.27;;;6.80;99.90;;;;;;4970531;28;20113;-57
2022/05/02 05:58:29;;;;;;;20.10;14.18;;;6.90;99.90;;;;;;4975155;28;20038;-55
2022/05/02 06:01:08;;;;;;;19.55;15.48;;;7.00;99.90;;;;;;4964010;28;20038;-55
2022/05/02 06:03:46;;;;;;;18.52;13.88;;;7.20;99.90;;;;;;4980487;28;20038;-55
2022/05/02 06:06:15;;;;;;;15.70;12.18;;;7.30;99.90;;;;;;4972126;28;20062;-56
2022/05/02 06:08:44;;;;;;;21.17;14.55;;;7.40;99.90;;;;;;4976855;28;20117;-55
2022/05/02 06:11:11;;;;;;;22.05;14.35;;;7.50;99.90;;;;;;5004094;23;20037;-55
2022/05/02 06:13:38;;;;;;;26.10;15.77;;;7.60;99.90;;;;;;5012547;28;20180;-56
2022/05/02 06:18:53;;;;;;;19.13;13.25;;;7.80;99.90;;;;;;5009912;28;20081;-56
2022/05/02 06:21:22;;;;;;;24.02;15.35;;;8.00;99.90;;;;;;5010365;28;20049;-52
2022/05/02 06:23:52;;;;;;;18.67;14.73;;;8.00;99.90;;;;;;5002969;28;20050;-54
2022/05/02 06:26:21;;;;;;;17.98;13.80;;;8.10;99.90;;;;;;5006911;28;20378;-54
2022/05/02 06:28:49;;;;;;;17.92;12.38;;;8.30;99.90;;;;;;5006844;28;20073;-55
2022/05/02 06:31:44;;;;;;;17.10;13.68;;;8.40;99.90;;;;;;4997101;28;20658;-56
2022/05/02 06:34:12;;;;;;;14.80;12.45;;;8.50;99.90;;;;;;5003410;28;20067;-56
2022/05/02 06:37:35;;;;;;;19.88;13.55;;;8.60;99.90;;;;;;4999368;28;20042;-55
2022/05/02 06:40:01;;;;;;;14.98;11.63;;;8.80;99.90;;;;;;4970914;28;20101;-57
2022/05/02 06:42:38;;;;;;;14.45;11.90;;;8.90;99.90;;;;;;4978770;28;20049;-56
2022/05/02 06:45:31;;;;;;;16.17;11.65;;;9.00;99.90;;;;;;4979684;28;20451;-54
2022/05/02 06:48:08;;;;;;;19.45;12.82;;;9.10;99.90;;;;;;4989415;28;20040;-55
2022/05/02 06:50:38;;;;;;;16.48;12.40;;;9.30;99.90;;;;;;5009857;28;20125;-56
2022/05/02 06:53:22;;;;;;;15.75;12.38;;;9.30;99.90;;;;;;5003249;28;20499;-57
2022/05/02 06:56:11;;;;;;;16.50;10.77;;;9.50;99.90;;;;;;5007240;28;20044;-55
2022/05/02 06:58:55;;;;;;;12.27;9.88;;;9.60;99.90;;;;;;5009791;28;20048;-56
2022/05/02 07:01:38;;;;;;;12.18;10.00;;;9.70;99.90;;;;;;4996411;28;20381;-57
2022/05/02 07:04:21;;;;;;;14.27;10.35;;;9.80;99.90;;;;;;5009430;28;20046;-55
2022/05/02 07:07:25;;;;;;;13.82;9.80;;;10.00;99.90;;;;;;4998683;28;20725;-55
2022/05/02 07:10:08;;;;;;;15.33;11.43;;;10.10;99.90;;;;;;5009210;28;20110;-56
2022/05/02 07:12:56;;;;;;;14.65;9.40;;;10.20;99.90;;;;;;5009848;28;20963;-56
2022/05/02 07:15:23;;;;;;;13.45;9.80;;;10.30;99.90;;;;;;5008118;28;20037;-57
2022/05/02 07:18:07;;;;;;;12.18;8.35;;;10.50;99.90;;;;;;5001906;28;20088;-56
2022/05/02 07:20:46;;;;;;;10.25;8.68;;;10.60;99.90;;;;;;5003908;28;20042;-57
2022/05/02 07:23:39;;;;;;;11.00;7.68;;;10.60;99.90;;;;;;4993127;28;20048;-56
2022/05/02 07:26:13;;;;;;;12.05;8.43;;;10.80;99.90;;;;;;5001043;28;20084;-56
2022/05/02 07:28:48;;;;;;;13.82;7.78;;;10.90;99.90;;;;;;5007775;28;20136;-54
2022/05/02 07:31:19;;;;;;;11.73;7.82;;;11.00;99.90;;;;;;5002088;28;20076;-56
2022/05/02 07:33:47;;;;;;;11.30;7.43;;;11.10;99.90;;;;;;5000149;28;20115;-56
2022/05/02 07:36:22;;;;;;;8.35;6.78;;;11.30;99.90;;;;;;5010052;28;20481;-55
2022/05/02 07:38:57;;;;;;;11.82;7.63;;;11.40;99.90;;;;;;5010872;28;20123;-56
2022/05/02 07:41:27;;;;;;;10.88;6.40;;;11.50;99.90;;;;;;4993254;28;20034;-57
2022/05/02 07:44:00;;;;;;;12.38;7.38;;;11.60;99.90;;;;;;5004265;28;20471;-58
2022/05/02 07:46:33;;;;;;;8.68;7.22;;;11.70;99.90;;;;;;4995352;28;21144;-57
2022/05/02 07:49:01;;;;;;;10.98;7.55;;;11.80;99.90;;;;;;5003842;28;20064;-57
2022/05/02 07:51:27;;;;;;;9.73;7.70;;;11.80;99.90;;;;;;5000116;28;20113;-57
2022/05/02 07:53:55;;;;;;;10.32;7.22;;;11.90;99.90;;;;;;5004586;28;20193;-57
2022/05/02 07:56:26;;;;;;;9.68;6.53;;;12.00;99.90;;;;;;4990082;28;20621;-56
2022/05/02 07:58:53;;;;;;;9.98;6.63;;;12.10;99.90;;;;;;5011540;28;20053;-57
2022/05/02 08:01:23;;;;;;;9.73;7.80;;;12.20;99.90;;;;;;4994307;28;20065;-56
2022/05/02 08:03:50;;;;;;;9.43;7.60;;;12.20;99.90;;;;;;4995076;28;20124;-57
2022/05/02 08:06:40;;;;;;;8.70;6.90;;;12.30;99.90;;;;;;5012672;28;20044;-55
2022/05/02 08:09:28;;;;;;;9.57;7.30;;;12.40;99.90;;;;;;5002253;28;20233;-57
2022/05/02 08:11:59;;;;;;;9.23;6.82;;;12.60;99.90;;;;;;5002812;28;20052;-56
2022/05/02 08:14:41;;;;;;;10.40;7.03;;;12.60;99.40;;;;;;4992145;28;20038;-57
2022/05/02 08:17:22;;;;;;;10.52;6.95;;;12.60;98.80;;;;;;4988538;28;20102;-57
2022/05/02 08:20:39;;;;;;;9.95;7.40;;;12.70;98.30;;;;;;5009911;28;20065;-56
2022/05/02 08:29:34;;;;;;;9.35;7.18;;;13.00;97.70;;;;;;5007418;28;20119;-56
2022/05/02 08:32:22;;;;;;;8.45;7.03;;;13.10;97.70;;;;;;5011284;28;20523;-57
2022/05/02 08:35:03;;;;;;;12.20;7.53;;;13.20;97.30;;;;;;5007368;28;20369;-55
2022/05/02 08:37:42;;;;;;;11.82;7.60;;;13.40;97.50;;;;;;5002760;28;20045;-56
2022/05/02 08:40:22;;;;;;;7.80;6.47;;;13.50;97.00;;;;;;5000948;28;20152;-56
2022/05/02 08:43:07;;;;;;;10.15;6.25;;;13.60;96.50;;;;;;5007118;28;20057;-54
2022/05/02 08:45:54;;;;;;;8.45;6.47;;;13.60;96.00;;;;;;5012728;28;20045;-57
2022/05/02 08:48:41;;;;;;;8.40;5.90;;;13.60;95.60;;;;;;5008946;28;20041;-57
2022/05/02 08:51:29;;;;;;;7.60;6.80;;;13.60;95.80;;;;;;5009009;28;20080;-57
2022/05/02 08:54:23;;;;;;;9.98;6.60;;;13.70;95.80;;;;;;5014392;28;20045;-56
2022/05/02 08:57:06;;;;;;;8.93;6.80;;;13.80;94.20;;;;;;5003767;28;20050;-56
2022/05/02 08:59:50;;;;;;;10.50;6.68;;;13.90;95.00;;;;;;5008817;28;21031;-57
2022/05/02 09:02:47;;;;;;;12.25;6.72;;;14.10;95.60;;;;;;5004032;28;20095;-57
2022/05/02 09:05:48;;;;;;;8.57;6.55;;;14.40;95.20;;;;;;5007464;28;20144;-58
2022/05/02 09:08:35;;;;;;;10.05;7.18;;;14.50;94.60;;;;;;5013049;28;20086;-57
2022/05/02 09:11:10;;;;;;;10.43;6.43;;;14.60;94.00;;;;;;5007025;28;20125;-57
2022/05/02 09:13:49;;;;;;;8.13;6.50;;;14.70;94.40;;;;;;5005298;28;20060;-62
2022/05/02 09:16:42;;;;;;;9.30;7.25;;;14.90;93.90;;;;;;5005482;28;20041;-59
2022/05/02 09:19:39;;;;;;;8.27;6.22;;;15.00;93.80;;;;;;5011065;28;20053;-60
2022/05/02 09:22:16;;;;;;;11.88;7.03;;;15.10;93.90;;;;;;5001133;28;20714;-59
2022/05/02 09:25:07;;;;;;;10.15;6.72;;;15.20;92.90;;;;;;5006082;28;20108;-61
2022/05/02 09:27:57;;;;;;;12.30;6.95;;;15.20;91.60;;;;;;5011084;28;20037;-60
2022/05/02 09:30:49;;;;;;;11.10;7.18;;;15.20;91.60;;;;;;4992993;28;20045;-60
2022/05/02 09:33:25;;;;;;;8.98;6.32;;;15.30;91.90;;;;;;5011947;28;20064;-52
2022/05/02 09:36:01;;;;;;;9.68;6.00;;;15.50;91.70;;;;;;5006982;28;20049;-60
2022/05/02 09:38:30;;;;;;;9.20;6.28;;;15.60;90.90;;;;;;5005114;28;20203;-63
2022/05/02 09:41:05;;;;;;;8.90;6.88;;;15.50;88.80;;;;;;5007009;28;20049;-60
2022/05/02 09:50:10;;;;;;;7.88;5.47;;;15.70;87.10;;;;;;5009241;28;20053;-61
2022/05/02 09:53:17;;;;;;;10.48;6.15;;;15.90;85.40;;;;;;5016347;28;20055;-61
2022/05/02 09:59:20;;;;;;;8.40;5.53;;;15.90;79.80;;;;;;5011641;28;20069;-59
2022/05/02 10:01:48;;;;;;;8.65;5.57;;;15.90;84.00;;;;;;5007284;28;20073;-60
2022/05/02 10:04:36;;;;;;;9.68;6.13;;;16.10;84.30;;;;;;5010184;28;20053;-60
2022/05/02 10:07:08;;;;;;;8.05;5.05;;;16.20;79.40;;;;;;5009122;28;20065;-61
2022/05/02 10:09:35;;;;;;;6.65;5.10;;;16.30;81.80;;;;;;5008952;28;20033;-60
2022/05/02 10:12:22;;;;;;;6.47;4.72;;;16.40;83.00;;;;;;4990076;28;20092;-59
2022/05/02 10:14:52;;;;;;;9.40;5.30;;;16.70;81.70;;;;;;5006576;28;20065;-59
2022/05/02 10:17:35;;;;;;;7.45;4.50;;;16.90;80.60;;;;;;5010319;28;21209;-58
2022/05/02 10:20:09;;;;;;;7.30;4.68;;;16.90;78.70;;;;;;5001966;28;20029;-59
2022/05/02 10:23:00;;;;;;;5.90;4.47;;;17.00;77.50;;;;;;4997779;28;20050;-61
2022/05/02 10:25:43;;;;;;;7.03;5.22;;;17.00;75.60;;;;;;5007044;28;20044;-61
2022/05/02 10:28:21;;;;;;;7.63;5.18;;;17.10;76.10;;;;;;5005722;28;20052;-62
2022/05/02 10:30:54;;;;;;;5.18;4.13;;;17.10;75.20;;;;;;5003718;28;20099;-61
2022/05/02 10:33:35;;;;;;;7.38;4.82;;;17.20;74.70;;;;;;5008646;28;22089;-60
2022/05/02 10:36:04;;;;;;;7.47;4.80;;;17.30;73.80;;;;;;5011234;28;20488;-61
2022/05/02 10:38:31;;;;;;;10.70;5.47;;;17.40;73.80;;;;;;4988380;28;20524;-61
2022/05/02 10:41:22;;;;;;;5.43;4.53;;;17.60;73.10;;;;;;5006898;28;20087;-59
2022/05/02 10:44:05;;;;;;;5.35;4.43;;;17.60;72.70;;;;;;4997421;28;20049;-63
2022/05/02 10:46:32;;;;;;;6.05;4.53;;;17.80;74.00;;;;;;5009267;28;20042;-60
2022/05/02 10:49:22;;;;;;;6.07;4.47;;;18.00;73.30;;;;;;5008058;28;20441;-60
2022/05/02 10:51:55;;;;;;;8.25;4.57;;;18.20;72.80;;;;;;5009674;28;20071;-61
2022/05/02 10:54:36;;;;;;;5.30;4.72;;;18.20;71.30;;;;;;5011961;28;20045;-58
2022/05/02 10:57:27;;;;;;;7.55;4.55;;;18.40;71.20;;;;;;5012465;28;20050;-60
2022/05/02 10:59:54;;;;;;;4.65;3.50;;;18.50;70.80;;;;;;5007365;28;20053;-61
2022/05/02 11:02:35;;;;;;;4.85;3.38;;;18.50;67.20;;;;;;5015245;28;20089;-60
2022/05/02 11:05:11;;;;;;;5.68;3.40;;;18.40;64.80;;;;;;4994887;28;20046;-59
2022/05/02 11:08:07;;;;;;;5.80;2.78;;;18.30;64.90;;;;;;5018219;28;20072;-59
2022/05/02 11:11:06;;;;;;;5.88;3.08;;;18.30;65.40;;;;;;4991322;28;20651;-59
2022/05/02 11:13:45;;;;;;;5.57;3.92;;;18.60;62.90;;;;;;5018296;28;20128;-60
2022/05/02 11:16:20;;;;;;;5.47;4.13;;;18.60;64.30;;;;;;5007290;28;20045;-59
2022/05/02 11:22:21;;;;;;;5.53;2.63;;;18.90;59.70;;;;;;5009812;28;20049;-59
2022/05/02 11:25:11;;;;;;;5.38;3.42;;;18.80;61.50;;;;;;5016774;28;20033;-60
2022/05/02 11:27:59;;;;;;;7.65;4.13;;;18.90;63.10;;;;;;5002790;28;20493;-59
2022/05/02 11:30:31;;;;;;;4.90;3.97;;;19.10;64.20;;;;;;5017329;28;20067;-60
2022/05/02 11:33:16;;;;;;;5.27;3.67;;;19.30;63.70;;;;;;5011287;28;20107;-60
2022/05/02 11:35:51;;;;;;;5.28;4.30;;;19.40;60.30;;;;;;5009183;28;20038;-64
2022/05/02 11:38:20;;;;;;;5.60;4.32;;;19.40;63.30;;;;;;5008118;28;20116;-59
2022/05/02 11:40:50;;;;;;;8.18;4.38;;;19.40;63.60;;;;;;5006969;28;20048;-60
2022/05/02 11:43:21;;;;;;;6.55;4.35;;;19.60;61.70;;;;;;5004955;28;20037;-59
2022/05/02 11:46:12;;;;;;;8.80;4.10;;;19.60;60.50;;;;;;5011781;28;20405;-62
2022/05/02 11:48:53;;;;;;;7.70;4.05;;;19.50;60.40;;;;;;5019275;28;20045;-59
2022/05/02 11:51:30;;;;;;;5.65;4.25;;;19.60;61.80;;;;;;5011432;28;20196;-62
2022/05/02 11:53:58;;;;;;;6.50;4.50;;;19.70;61.70;;;;;;5020801;28;20049;-59
2022/05/02 11:56:37;;;;;;;5.60;4.18;;;20.00;62.40;;;;;;5020203;28;20055;-60
2022/05/02 11:59:12;;;;;;;6.65;4.70;;;19.70;59.20;;;;;;5020444;28;20091;-60
2022/05/02 12:01:43;;;;;;;5.65;4.35;;;19.70;60.30;;;;;;5005092;28;20038;-63
2022/05/02 12:04:13;;;;;;;6.43;4.70;;;19.80;61.50;;;;;;5006927;28;20050;-60
2022/05/02 12:07:02;;;;;;;5.72;4.97;;;19.70;62.60;;;;;;5005532;28;20041;-62
2022/05/02 12:09:34;;;;;;;7.00;4.85;;;19.30;59.60;;;;;;5008427;28;20075;-62
2022/05/02 12:12:13;;;;;;;6.95;4.63;;;18.90;63.30;;;;;;5011400;28;21277;-62
2022/05/02 12:14:40;;;;;;;6.95;4.95;;;18.80;64.70;;;;;;4987448;28;20408;-62
2022/05/02 12:17:09;;;;;;;11.93;5.45;;;19.00;65.50;;;;;;5002828;28;20049;-63
2022/05/02 12:19:37;;;;;;;10.13;5.93;;;19.00;65.20;;;;;;5000803;28;20045;-64
2022/05/02 12:22:05;;;;;;;7.97;5.47;;;19.10;64.80;;;;;;4991285;28;20501;-57
2022/05/02 12:24:35;;;;;;;9.48;5.18;;;19.10;65.00;;;;;;5007015;28;20045;-61
2022/05/02 12:27:06;;;;;;;8.88;5.32;;;19.00;64.90;;;;;;5008808;28;20049;-60
2022/05/02 12:29:34;;;;;;;7.30;5.07;;;18.80;65.90;;;;;;5013480;28;20057;-60
2022/05/02 12:32:02;;;;;;;6.03;4.50;;;18.90;66.60;;;;;;4999145;28;20477;-62
2022/05/02 12:34:37;;;;;;;7.80;5.47;;;19.20;67.30;;;;;;5008936;28;20104;-60
2022/05/02 12:37:08;;;;;;;7.57;4.80;;;19.40;66.90;;;;;;5015675;28;20056;-60
2022/05/02 12:39:44;;;;;;;7.88;4.47;;;19.40;66.00;;;;;;5014608;28;21071;-59
2022/05/02 12:42:18;;;;;;;5.82;4.82;;;19.40;67.10;;;;;;5005012;28;20103;-61
2022/05/02 12:45:04;;;;;;;6.38;4.78;;;19.20;66.10;;;;;;5008186;28;20038;-59
2022/05/02 12:47:41;;;;;;;6.82;5.35;;;18.80;65.30;;;;;;5015655;28;20065;-59
2022/05/02 12:50:17;;;;;;;6.50;4.60;;;18.50;66.00;;;;;;4994866;28;20054;-62
2022/05/02 12:52:55;;;;;;;6.07;4.53;;;18.20;66.00;;;;;;5014364;28;20416;-61
2022/05/02 12:55:23;;;;;;;6.55;4.32;;;18.40;67.10;;;;;;5004850;28;20050;-61
2022/05/02 13:00:48;;;;;;;10.52;5.05;;;18.60;68.00;;;;;;5008227;28;20152;-60
2022/05/02 13:03:15;;;;;;;7.70;4.45;;;19.00;69.00;;;;;;4993202;28;20041;-60
2022/05/02 13:05:53;;;;;;;9.68;4.95;;;19.40;68.00;;;;;;5004372;28;20052;-61
2022/05/02 13:08:29;;;;;;;7.30;4.70;;;19.70;66.50;;;;;;5021412;28;20045;-59
2022/05/02 13:11:10;;;;;;;5.85;4.47;;;19.60;66.20;;;;;;5016682;28;20065;-59
2022/05/02 13:13:42;;;;;;;7.93;4.88;;;19.50;66.60;;;;;;5022009;28;20069;-62
2022/05/02 13:16:15;;;;;;;5.45;4.50;;;19.70;68.00;;;;;;5018027;28;20452;-59
2022/05/02 13:18:48;;;;;;;8.32;4.55;;;19.50;65.40;;;;;;5024482;28;20045;-59
2022/05/02 13:21:16;;;;;;;6.43;4.53;;;19.20;65.30;;;;;;5009322;28;20508;-59
2022/05/02 13:23:44;;;;;;;8.07;4.55;;;18.80;65.80;;;;;;4992912;28;20060;-61
2022/05/02 13:26:33;;;;;;;6.07;3.97;;;18.80;66.60;;;;;;5026490;28;20057;-60
2022/05/02 13:29:08;;;;;;;4.68;4.20;;;19.00;66.60;;;;;;5022070;28;20348;-60
2022/05/02 13:31:52;;;;;;;6.00;4.05;;;19.30;66.80;;;;;;5018928;28;20041;-62
2022/05/02 13:34:17;;;;;;;5.22;3.83;;;18.80;63.20;;;;;;5019254;28;20167;-60
2022/05/02 13:36:43;;;;;;;5.63;4.28;;;18.20;65.00;;;;;;5028061;28;20120;-58
2022/05/02 13:39:19;;;;;;;6.97;4.25;;;18.10;65.50;;;;;;5011446;28;20130;-58
2022/05/02 13:41:59;;;;;;;6.05;3.60;;;18.40;67.10;;;;;;5009431;28;20611;-60
2022/05/02 13:44:56;;;;;;;5.82;3.53;;;18.60;66.70;;;;;;5007980;28;20046;-59
2022/05/02 13:47:29;;;;;;;6.47;4.30;;;18.70;66.30;;;;;;5010261;28;20048;-61